Time;durP1;ratioP1;P1;durP2;ratioP2;P2;SDS_P1;SDS_P2;PMS_P1;PMS_P2;Temp;Humidity;BMP_temperature;BMP_pressure;BME280_temperature;BME280_humidity;BME280_pressure;Samples;Min_cycle;Max_cycle;Signal;HPM_P1;HPM_P2
2023/08/14 00:02:41;;;;;;;;;;;;;;;16.83;69.89;100361.03;5047075;28;1926;-77
2023/08/14 00:05:34;;;;;;;;;;;;;;;16.83;69.77;100375.44;5054235;28;1332;-78
2023/08/14 00:08:25;;;;;;;;;;;;;;;16.83;69.91;100370.00;5046267;28;1051;-76
2023/08/14 00:11:17;;;;;;;;;;;;;;;16.84;69.75;100359.94;5055221;28;1520;-77
2023/08/14 00:14:09;;;;;;;;;;;;;;;16.83;69.72;100367.28;5049244;28;1478;-78
2023/08/14 00:17:01;;;;;;;;;;;;;;;16.83;69.85;100367.28;5062128;28;1336;-77
2023/08/14 00:19:53;;;;;;;;;;;;;;;16.83;69.68;100364.56;5052880;28;1212;-78
2023/08/14 00:22:45;;;;;;;;;;;;;;;16.82;69.70;100360.19;5050788;28;1386;-78
2023/08/14 00:25:37;;;;;;;;;;;;;;;16.82;69.80;100368.34;5052732;28;1280;-78
2023/08/14 00:28:29;;;;;;;;;;;;;;;16.82;69.72;100371.06;5048347;28;1324;-77
2023/08/14 00:31:21;;;;;;;;;;;;;;;16.82;69.55;100370.25;5044656;28;1425;-77
2023/08/14 00:34:13;;;;;;;;;;;;;;;16.82;69.68;100371.06;5048397;28;992;-79
2023/08/14 00:37:05;;;;;;;;;;;;;;;16.80;69.60;100368.63;5053303;28;1916;-76
2023/08/14 00:39:57;;;;;;;;;;;;;;;16.82;69.79;100370.25;5038586;28;2235;-77
2023/08/14 00:42:49;;;;;;;;;;;;;;;16.79;69.70;100372.44;5038010;28;2258;-78
2023/08/14 00:45:41;;;;;;;;;;;;;;;16.80;69.52;100373.25;5041864;28;2341;-77
2023/08/14 00:48:33;;;;;;;;;;;;;;;16.80;69.74;100365.91;5038414;28;2279;-79
2023/08/14 00:51:25;;;;;;;;;;;;;;;16.80;69.59;100373.25;5040118;28;2389;-78
2023/08/14 00:54:17;;;;;;;;;;;;;;;16.80;69.72;100376.78;5039429;28;2627;-79
2023/08/14 00:57:09;;;;;;;;;;;;;;;16.80;69.65;100378.69;5037957;28;2296;-78
2023/08/14 01:00:02;;;;;;;;;;;;;;;16.80;69.52;100373.25;5037294;28;2440;-77
2023/08/14 01:02:54;;;;;;;;;;;;;;;16.79;69.65;100372.44;5052188;28;2256;-77
2023/08/14 01:05:46;;;;;;;;;;;;;;;16.79;69.59;100368.88;5049947;28;1308;-77
2023/08/14 01:08:37;;;;;;;;;;;;;;;16.79;69.50;100368.88;5038986;28;2365;-77
2023/08/14 01:11:29;;;;;;;;;;;;;;;16.79;69.48;100377.03;5038795;28;2392;-77
2023/08/14 01:14:21;;;;;;;;;;;;;;;16.77;69.48;100374.59;5037990;28;2289;-78
2023/08/14 01:17:13;;;;;;;;;;;;;;;16.78;69.62;100368.06;5040953;28;2622;-77
2023/08/14 01:20:05;;;;;;;;;;;;;;;16.78;69.47;100380.84;5046380;28;2262;-76
2023/08/14 01:22:57;;;;;;;;;;;;;;;16.78;69.50;100378.13;5043223;28;2194;-77
2023/08/14 01:25:49;;;;;;;;;;;;;;;16.76;69.48;100372.94;5038109;28;2605;-79
2023/08/14 01:28:41;;;;;;;;;;;;;;;16.77;69.58;100371.88;5038344;28;2655;-76
2023/08/14 01:31:33;;;;;;;;;;;;;;;16.77;69.58;100371.88;5040365;28;2254;-78
2023/08/14 01:34:25;;;;;;;;;;;;;;;16.78;69.51;100378.94;5038051;28;2616;-77
2023/08/14 01:37:17;;;;;;;;;;;;;;;16.77;69.52;100381.97;5038696;28;2476;-78
2023/08/14 01:40:09;;;;;;;;;;;;;;;16.76;69.45;100367.50;5038557;28;2354;-78
2023/08/14 01:43:01;;;;;;;;;;;;;;;16.74;69.44;100358.78;5038994;28;2238;-78
2023/08/14 01:45:53;;;;;;;;;;;;;;;16.75;69.26;100365.84;5038073;28;2460;-78
2023/08/14 01:48:45;;;;;;;;;;;;;;;16.73;69.49;100364.47;5038032;28;2691;-77
2023/08/14 01:51:37;;;;;;;;;;;;;;;16.74;69.46;100363.41;5049710;28;2183;-79
2023/08/14 01:54:29;;;;;;;;;;;;;;;16.75;69.48;100363.13;5041638;28;2214;-76
2023/08/14 01:57:21;;;;;;;;;;;;;;;16.73;69.38;100362.56;5038010;28;2258;-76
2023/08/14 02:00:13;;;;;;;;;;;;;;;16.72;69.31;100362.84;5036513;28;2151;-78
2023/08/14 02:03:05;;;;;;;;;;;;;;;16.72;69.31;100371.81;5037317;28;2400;-79
2023/08/14 02:05:57;;;;;;;;;;;;;;;16.73;69.33;100376.16;5037716;28;2604;-78
2023/08/14 02:08:49;;;;;;;;;;;;;;;16.72;69.25;100371.00;5037234;28;2247;-77
2023/08/14 02:11:41;;;;;;;;;;;;;;;16.72;69.39;100369.09;5040935;28;2145;-78
2023/08/14 02:14:33;;;;;;;;;;;;;;;16.73;69.29;100361.75;5050064;28;1841;-79
2023/08/14 02:17:27;;;;;;;;;;;;;;;16.72;69.29;100371.81;5042874;28;1914;-78
2023/08/14 02:20:18;;;;;;;;;;;;;;;16.73;69.23;100367.19;5043243;28;1237;-79
2023/08/14 02:23:10;;;;;;;;;;;;;;;16.72;69.27;100362.84;5045698;28;1629;-78
2023/08/14 02:26:02;;;;;;;;;;;;;;;16.72;69.19;100358.22;5045316;28;1031;-77
2023/08/14 02:28:54;;;;;;;;;;;;;;;16.71;69.22;100364.75;5047659;28;1719;-78
2023/08/14 02:31:47;;;;;;;;;;;;;;;16.70;69.20;100365.81;5043405;28;1992;-76
2023/08/14 02:34:38;;;;;;;;;;;;;;;16.71;69.33;100363.94;5050442;28;1213;-77
2023/08/14 02:37:30;;;;;;;;;;;;;;;16.71;69.32;100366.66;5051604;28;1914;-76
2023/08/14 02:40:22;;;;;;;;;;;;;;;16.71;69.23;100356.59;5040899;28;1628;-79
2023/08/14 02:43:14;;;;;;;;;;;;;;;16.71;69.25;100366.66;5042658;28;1629;-78
2023/08/14 02:46:06;;;;;;;;;;;;;;;16.70;69.25;100371.25;5046783;28;1560;-78
2023/08/14 02:48:58;;;;;;;;;;;;;;;16.71;69.12;100362.03;5048360;28;2112;-78
2023/08/14 02:51:50;;;;;;;;;;;;;;;16.70;69.14;100367.72;5039587;28;2545;-77
2023/08/14 02:54:42;;;;;;;;;;;;;;;16.69;69.25;100369.63;5036809;28;2292;-77
2023/08/14 02:57:34;;;;;;;;;;;;;;;16.69;69.17;100377.78;5042353;28;2224;-77
2023/08/14 03:00:26;;;;;;;;;;;;;;;16.68;69.22;100381.59;5036110;28;2512;-77
2023/08/14 03:03:18;;;;;;;;;;;;;;;16.68;69.40;100380.78;5037115;28;2252;-76
2023/08/14 03:06:10;;;;;;;;;;;;;;;16.68;69.18;100386.22;5036205;28;2262;-76
2023/08/14 03:09:02;;;;;;;;;;;;;;;16.66;69.07;100389.19;5033999;28;2313;-78
2023/08/14 03:11:54;;;;;;;;;;;;;;;16.68;69.10;100394.38;5034656;28;2433;-77
2023/08/14 03:14:46;;;;;;;;;;;;;;;16.67;69.30;100390.00;5036119;28;2203;-78
2023/08/14 03:17:38;;;;;;;;;;;;;;;16.24;69.17;100324.81;5031943;28;2321;-79
2023/08/14 03:20:33;;;;;;;;;;;;;;;16.66;69.35;100393.81;5036503;28;2223;-78
2023/08/14 03:23:24;;;;;;;;;;;;;;;16.64;69.24;100383.19;5033165;28;2305;-78
2023/08/14 03:26:19;;;;;;;;;;;;;;;16.64;69.24;100391.34;5037783;28;2230;-77
2023/08/14 03:29:10;;;;;;;;;;;;;;;16.63;69.27;100387.00;5034114;28;2608;-80
2023/08/14 03:32:02;;;;;;;;;;;;;;;16.65;69.22;100389.44;5037171;28;2154;-76
2023/08/14 03:34:54;;;;;;;;;;;;;;;16.64;69.12;100393.25;5036950;28;2215;-78
2023/08/14 03:37:46;;;;;;;;;;;;;;;16.62;69.28;100396.25;5033729;28;2494;-76
2023/08/14 03:40:38;;;;;;;;;;;;;;;16.62;69.27;100395.41;5036457;28;2307;-77
2023/08/14 03:43:30;;;;;;;;;;;;;;;16.61;69.23;100396.50;5040386;28;2461;-77
2023/08/14 03:46:22;;;;;;;;;;;;;;;16.61;69.25;100388.34;5040333;28;2489;-79
2023/08/14 03:49:14;;;;;;;;;;;;;;;16.61;69.25;100386.44;5037595;28;2548;-77
2023/08/14 03:52:06;;;;;;;;;;;;;;;16.58;69.26;100389.69;5037354;28;2260;-77
2023/08/14 03:54:58;;;;;;;;;;;;;;;16.66;69.02;100391.09;5035013;28;2218;-77
2023/08/14 03:57:53;;;;;;;;;;;;;;;16.60;69.16;100387.53;5044072;28;2322;-79
2023/08/14 04:00:46;;;;;;;;;;;;;;;16.59;69.17;100391.34;5036768;28;2429;-78
2023/08/14 04:03:38;;;;;;;;;;;;;;;16.61;69.06;100400.03;5037652;28;2674;-78
2023/08/14 04:06:29;;;;;;;;;;;;;;;16.64;69.03;100398.69;5039704;28;2166;-78
2023/08/14 04:09:21;;;;;;;;;;;;;;;16.63;68.96;100399.78;5035801;28;2586;-78
2023/08/14 04:12:13;;;;;;;;;;;;;;;16.61;69.02;100391.88;5040030;28;2388;-78
2023/08/14 04:15:06;;;;;;;;;;;;;;;16.62;69.02;100396.25;5050762;28;2176;-78
2023/08/14 04:17:57;;;;;;;;;;;;;;;16.63;68.95;100388.91;5042293;28;1904;-79
2023/08/14 04:20:48;;;;;;;;;;;;;;;16.62;68.94;100393.53;5005932;28;1197295;-78
2023/08/14 04:23:40;;;;;;;;;;;;;;;16.57;68.83;100386.16;5043480;28;1560;-77
2023/08/14 04:26:32;;;;;;;;;;;;;;;16.60;69.25;100389.44;5053427;28;1637;-78
2023/08/14 04:29:24;;;;;;;;;;;;;;;16.56;69.09;100389.16;5040666;28;1653;-76
2023/08/14 04:32:16;;;;;;;;;;;;;;;16.56;69.12;100389.16;5050057;28;1616;-78
2023/08/14 04:35:09;;;;;;;;;;;;;;;16.61;68.87;100381.00;5047897;28;1608;-78
2023/08/14 04:38:01;;;;;;;;;;;;;;;16.60;68.91;100397.59;5043393;28;1910;-79
2023/08/14 04:40:52;;;;;;;;;;;;;;;16.57;69.05;100390.78;5043867;28;2203;-76
2023/08/14 04:43:43;;;;;;;;;;;;;;;16.55;69.22;100395.66;5032733;28;2613;-79
2023/08/14 04:46:35;;;;;;;;;;;;;;;16.54;69.17;100389.41;5037614;28;2184;-78
2023/08/14 04:49:27;;;;;;;;;;;;;;;16.57;69.00;100393.50;5032612;28;2482;-78
2023/08/14 04:52:22;;;;;;;;;;;;;;;16.56;68.94;100400.84;5039093;28;2216;-77
2023/08/14 04:55:13;;;;;;;;;;;;;;;16.54;69.08;100405.72;5033251;28;2597;-77
2023/08/14 04:58:06;;;;;;;;;;;;;;;16.53;69.10;100395.94;5044289;28;2506;-79
2023/08/14 05:00:57;;;;;;;;;;;;;;;16.51;69.13;100400.00;5035712;28;2504;-78
2023/08/14 05:03:49;;;;;;;;;;;;;;;16.50;69.25;100387.47;5049599;28;2085;-77
2023/08/14 05:06:41;;;;;;;;;;;;;;;16.53;69.09;100387.78;5043581;28;1609;-77
2023/08/14 05:09:33;;;;;;;;;;;;;;;16.51;69.03;100397.28;5039837;28;2211;-79
2023/08/14 05:12:25;;;;;;;;;;;;;;;16.53;69.04;100392.38;5050928;28;2045;-78
2023/08/14 05:15:17;;;;;;;;;;;;;;;16.51;69.04;100402.72;5047746;28;1820;-77
2023/08/14 05:18:09;;;;;;;;;;;;;;;16.50;69.09;100409.22;5050259;28;1918;-79
2023/08/14 05:21:01;;;;;;;;;;;;;;;16.49;69.14;100408.41;5049127;28;1573;-77
2023/08/14 05:23:53;;;;;;;;;;;;;;;16.50;69.07;100412.78;5050512;28;1725;-78
2023/08/14 05:26:45;;;;;;;;;;;;;;;16.49;69.06;100419.28;5048794;28;2624;-78
2023/08/14 05:29:37;;;;;;;;;;;;;;;16.47;69.14;100418.72;5050963;28;1003;-77
2023/08/14 05:32:29;;;;;;;;;;;;;;;16.48;69.11;100411.41;5046300;28;1654;-77
2023/08/14 05:35:23;;;;;;;;;;;;;;;16.48;69.11;100412.22;5053536;28;1367;-78
2023/08/14 05:38:15;;;;;;;;;;;;;;;16.48;69.01;100414.94;5043437;28;1902;-78
2023/08/14 05:41:06;;;;;;;;;;;;;;;16.52;68.90;100423.38;5045842;28;1413;-76
2023/08/14 05:43:58;;;;;;;;;;;;;;;16.52;68.92;100420.66;5053550;28;929;-77
2023/08/14 05:46:50;;;;;;;;;;;;;;;16.49;69.01;100429.34;5050220;28;912;-79
2023/08/14 05:49:42;;;;;;;;;;;;;;;16.50;69.04;100429.09;5052762;28;936;-77
2023/08/14 05:52:34;;;;;;;;;;;;;;;16.50;68.90;100441.84;5046374;28;2057;-77
2023/08/14 05:55:26;;;;;;;;;;;;;;;16.49;68.93;100440.19;5049916;28;1541;-77
2023/08/14 05:58:18;;;;;;;;;;;;;;;16.49;68.99;100432.88;5051607;28;1910;-79
2023/08/14 06:01:10;;;;;;;;;;;;;;;16.47;68.99;100432.31;5043642;28;2143;-79
2023/08/14 06:04:02;;;;;;;;;;;;;;;16.45;68.91;100437.19;5044689;28;1047;-77
2023/08/14 06:06:55;;;;;;;;;;;;;;;16.46;69.05;100433.38;5045889;28;2115;-78
2023/08/14 06:09:46;;;;;;;;;;;;;;;16.46;69.08;100438.81;5046608;28;1101;-79
2023/08/14 06:12:37;;;;;;;;;;;;;;;16.44;69.10;100438.28;5046865;28;2083;-77
2023/08/14 06:15:29;;;;;;;;;;;;;;;16.46;69.01;100443.44;5047281;28;1992;-78
2023/08/14 06:18:21;;;;;;;;;;;;;;;16.46;68.94;100440.72;5049522;28;2005;-78
2023/08/14 06:21:13;;;;;;;;;;;;;;;16.47;69.04;100436.91;5042846;28;1561;-77
2023/08/14 06:24:05;;;;;;;;;;;;;;;16.45;69.08;100441.81;5045761;28;2164;-77
2023/08/14 06:26:56;;;;;;;;;;;;;;;16.45;69.02;100447.25;5051246;28;1374;-78
2023/08/14 06:29:49;;;;;;;;;;;;;;;16.45;69.13;100449.97;5050586;28;1201;-77
2023/08/14 06:32:40;;;;;;;;;;;;;;;16.47;68.93;100445.91;5045628;28;2507;-79
2023/08/14 06:35:31;;;;;;;;;;;;;;;16.43;69.09;100450.22;5047558;28;1281;-76
2023/08/14 06:38:24;;;;;;;;;;;;;;;16.43;69.04;100438.53;5051130;28;1906;-76
2023/08/14 06:41:15;;;;;;;;;;;;;;;16.43;69.02;100442.06;5050603;28;1526;-77
2023/08/14 06:44:07;;;;;;;;;;;;;;;16.44;69.05;100441.00;5041648;28;1111;-78
2023/08/14 06:47:00;;;;;;;;;;;;;;;16.45;69.02;100448.06;5049660;28;2104;-77
2023/08/14 06:49:51;;;;;;;;;;;;;;;16.45;69.07;100442.63;5043788;28;939;-79
2023/08/14 06:52:42;;;;;;;;;;;;;;;16.44;69.00;100454.59;5044528;28;2095;-79
2023/08/14 06:55:34;;;;;;;;;;;;;;;16.44;69.07;100453.75;5053239;28;1652;-78
2023/08/14 06:58:26;;;;;;;;;;;;;;;16.45;68.87;100460.84;5053509;28;1965;-77
2023/08/14 07:01:18;;;;;;;;;;;;;;;16.46;68.90;100454.31;5047304;28;2092;-79
2023/08/14 07:04:09;;;;;;;;;;;;;;;16.45;68.99;100455.41;5052615;28;1429;-77
2023/08/14 07:07:01;;;;;;;;;;;;;;;16.44;69.25;100459.19;5042016;28;2009;-78
2023/08/14 07:09:53;;;;;;;;;;;;;;;16.44;69.11;100453.75;5048331;28;2052;-79
2023/08/14 07:12:45;;;;;;;;;;;;;;;16.44;68.99;100462.75;5039437;28;2098;-76
2023/08/14 07:15:37;;;;;;;;;;;;;;;16.43;69.07;100466.53;5047717;28;1439;-76
2023/08/14 07:18:29;;;;;;;;;;;;;;;16.44;69.10;100467.34;5047721;28;2021;-78
2023/08/14 07:21:21;;;;;;;;;;;;;;;16.42;69.11;100470.34;5051463;28;1224;-78
2023/08/14 07:24:13;;;;;;;;;;;;;;;16.42;69.16;100467.63;5049622;28;2065;-79
2023/08/14 07:27:05;;;;;;;;;;;;;;;16.43;69.21;100477.41;5057026;28;1549;-75
2023/08/14 07:29:57;;;;;;;;;;;;;;;16.42;69.24;100475.78;5044714;28;2052;-78
2023/08/14 07:32:49;;;;;;;;;;;;;;;16.42;69.14;100475.78;5050773;28;1342;-77
2023/08/14 07:35:42;;;;;;;;;;;;;;;16.42;69.19;100477.69;5047498;28;948;-80
2023/08/14 07:38:33;;;;;;;;;;;;;;;16.42;69.17;100473.06;5047662;28;2191;-77
2023/08/14 07:41:25;;;;;;;;;;;;;;;16.42;69.25;100481.22;5049936;28;1645;-77
2023/08/14 07:44:17;;;;;;;;;;;;;;;16.42;69.39;100481.22;5050197;28;1521;-77
2023/08/14 07:47:10;;;;;;;;;;;;;;;16.42;69.55;100488.56;5051245;28;2132;-77
2023/08/14 07:50:02;;;;;;;;;;;;;;;16.40;69.56;100490.69;5049997;28;972;-76
2023/08/14 07:52:55;;;;;;;;;;;;;;;16.40;69.57;100498.84;5050955;28;2115;-77
2023/08/14 07:55:48;;;;;;;;;;;;;;;16.38;69.72;100490.94;5046012;28;1418;-79
2023/08/14 07:58:41;;;;;;;;;;;;;;;16.38;70.04;100506.44;5050679;28;1902;-80
2023/08/14 08:01:32;;;;;;;;;;;;;;;16.38;69.94;100507.25;5054746;28;1399;-77
2023/08/14 08:04:24;;;;;;;;;;;;;;;16.37;70.04;100505.63;5046528;28;1451;-77
2023/08/14 08:07:15;;;;;;;;;;;;;;;16.37;70.10;100505.63;5046752;28;2154;-77
2023/08/14 08:10:07;;;;;;;;;;;;;;;16.37;69.93;100502.09;5049266;28;1989;-79
2023/08/14 08:12:59;;;;;;;;;;;;;;;16.36;69.94;100490.41;5040030;28;1441;-78
2023/08/14 08:15:51;;;;;;;;;;;;;;;16.36;69.98;100493.13;5041284;28;1417;-79
2023/08/14 08:18:43;;;;;;;;;;;;;;;16.38;69.96;100496.38;5041959;28;2069;-78
2023/08/14 08:21:36;;;;;;;;;;;;;;;16.38;69.92;100495.56;5050551;28;2048;-78
2023/08/14 08:24:27;;;;;;;;;;;;;;;16.37;69.95;100502.09;5049063;28;1487;-78
2023/08/14 08:27:19;;;;;;;;;;;;;;;16.35;69.90;100505.91;5043330;28;1679;-79
2023/08/14 08:30:11;;;;;;;;;;;;;;;16.38;69.79;100506.44;5052669;28;1474;-78
2023/08/14 08:33:03;;;;;;;;;;;;;;;16.38;69.82;100514.59;5047081;28;2497;-78
2023/08/14 08:35:55;;;;;;;;;;;;;;;16.37;69.85;100515.69;5040495;28;2195;-78
2023/08/14 08:38:47;;;;;;;;;;;;;;;16.38;69.85;100511.88;5039364;28;2159;-79
2023/08/14 08:41:39;;;;;;;;;;;;;;;16.37;69.82;100516.50;5039873;28;2504;-77
2023/08/14 08:44:31;;;;;;;;;;;;;;;16.36;69.86;100506.72;5033230;28;3307;-77
2023/08/14 08:47:23;;;;;;;;;;;;;;;16.36;69.85;100517.59;5035394;28;2672;-78
2023/08/14 08:50:15;;;;;;;;;;;;;;;16.36;69.78;100520.28;5039994;28;2508;-77
2023/08/14 08:53:07;;;;;;;;;;;;;;;16.37;69.79;100515.69;5039339;28;2618;-78
2023/08/14 08:55:58;;;;;;;;;;;;;;;16.37;69.70;100516.50;5037669;28;2356;-78
2023/08/14 08:58:50;;;;;;;;;;;;;;;16.37;69.74;100510.25;5038482;28;2264;-79
2023/08/14 09:01:43;;;;;;;;;;;;;;;16.36;69.72;100517.59;5039524;28;2305;-80
2023/08/14 09:04:34;;;;;;;;;;;;;;;16.37;69.74;100516.50;5041984;28;2131;-78
2023/08/14 09:07:25;;;;;;;;;;;;;;;16.38;69.79;100517.31;5038125;28;2114;-78
2023/08/14 09:10:17;;;;;;;;;;;;;;;16.37;69.71;100515.69;5041312;28;2588;-79
2023/08/14 09:13:10;;;;;;;;;;;;;;;16.38;69.66;100509.16;5039680;28;2298;-79
2023/08/14 09:16:01;;;;;;;;;;;;;;;16.38;69.73;100509.16;5038916;28;2628;-80
2023/08/14 09:18:53;;;;;;;;;;;;;;;16.38;69.70;100503.72;5040189;28;2336;-78
2023/08/14 09:21:45;;;;;;;;;;;;;;;16.39;69.72;100514.34;5040674;28;2286;-81
2023/08/14 09:24:37;;;;;;;;;;;;;;;16.38;69.70;100506.44;5047647;28;2698;-80
2023/08/14 09:27:28;;;;;;;;;;;;;;;16.39;69.72;100510.81;5051151;28;1386;-78
2023/08/14 09:30:20;;;;;;;;;;;;;;;16.39;69.66;100522.50;5044574;28;2003;-78
2023/08/14 09:33:12;;;;;;;;;;;;;;;16.41;69.65;100528.47;5047215;28;1678;-78
2023/08/14 09:36:04;;;;;;;;;;;;;;;16.41;69.66;100525.75;5051237;28;1502;-78
2023/08/14 09:38:56;;;;;;;;;;;;;;;16.40;69.65;100524.13;5054162;28;2047;-80
2023/08/14 09:41:48;;;;;;;;;;;;;;;16.40;69.72;100528.75;5049853;28;1899;-80
2023/08/14 09:44:40;;;;;;;;;;;;;;;16.40;69.71;100534.19;5050072;28;2136;-79
2023/08/14 09:47:33;;;;;;;;;;;;;;;16.40;69.79;100529.56;5053374;28;2128;-79
2023/08/14 09:50:26;;;;;;;;;;;;;;;16.42;69.58;100537.47;5042578;28;2229;-79
2023/08/14 09:53:18;;;;;;;;;;;;;;;16.41;69.69;100536.63;5042040;28;2344;-78
2023/08/14 09:56:10;;;;;;;;;;;;;;;16.43;69.64;100539.91;5041435;28;2275;-78
2023/08/14 09:59:02;;;;;;;;;;;;;;;16.43;69.61;100548.06;5039492;28;2266;-78
2023/08/14 10:01:54;;;;;;;;;;;;;;;16.43;69.87;100539.91;5040491;28;2448;-79
2023/08/14 10:04:46;;;;;;;;;;;;;;;16.44;69.67;100548.88;5037482;28;2853;-80
2023/08/14 10:07:39;;;;;;;;;;;;;;;16.45;69.77;100555.97;5037092;28;3223;-78
2023/08/14 10:10:30;;;;;;;;;;;;;;;16.44;69.78;100551.59;5040712;28;2570;-78
2023/08/14 10:13:21;;;;;;;;;;;;;;;16.45;69.64;100556.78;5038027;28;2246;-79
2023/08/14 10:16:14;;;;;;;;;;;;;;;16.46;69.70;100546.75;5041145;28;2407;-77
2023/08/14 10:19:06;;;;;;;;;;;;;;;16.46;69.75;100544.03;5038245;28;2139;-80
2023/08/14 10:21:59;;;;;;;;;;;;;;;16.47;69.60;100542.94;5039923;28;2266;-80
2023/08/14 10:24:51;;;;;;;;;;;;;;;16.47;69.56;100548.38;5037787;28;2235;-79
2023/08/14 10:27:43;;;;;;;;;;;;;;;16.47;69.66;100549.22;5038011;28;2489;-80
2023/08/14 10:30:34;;;;;;;;;;;;;;;16.47;69.69;100549.22;5037966;28;2532;-79
2023/08/14 10:33:27;;;;;;;;;;;;;;;16.48;69.67;100547.31;5040385;28;2272;-78
2023/08/14 10:36:18;;;;;;;;;;;;;;;16.49;69.73;100552.47;5040360;28;2145;-78
2023/08/14 10:39:10;;;;;;;;;;;;;;;16.50;69.70;100547.84;5038312;28;2496;-79
2023/08/14 10:42:01;;;;;;;;;;;;;;;16.51;69.71;100549.50;5036523;28;2178;-80
2023/08/14 10:44:53;;;;;;;;;;;;;;;16.51;69.61;100544.88;5035993;28;2181;-80
2023/08/14 10:47:44;;;;;;;;;;;;;;;16.51;69.72;100547.59;5037437;28;2768;-77
2023/08/14 10:50:36;;;;;;;;;;;;;;;16.51;69.90;100542.16;5036799;28;2183;-79
2023/08/14 10:53:28;;;;;;;;;;;;;;;16.52;69.75;100548.41;5035484;28;2174;-79
2023/08/14 10:56:20;;;;;;;;;;;;;;;16.53;69.68;100550.03;5038289;28;2123;-78
2023/08/14 10:59:12;;;;;;;;;;;;;;;16.54;69.72;100557.97;5037353;28;2163;-77
2023/08/14 11:02:05;;;;;;;;;;;;;;;16.53;69.70;100548.16;5036789;28;2205;-80
2023/08/14 11:04:56;;;;;;;;;;;;;;;16.54;69.68;100551.72;5038683;28;2318;-78
2023/08/14 11:07:48;;;;;;;;;;;;;;;16.55;69.70;100558.78;5038670;28;2417;-79
2023/08/14 11:10:41;;;;;;;;;;;;;;;16.55;69.69;100559.59;5039519;28;2561;-80
2023/08/14 11:13:32;;;;;;;;;;;;;;;16.56;69.78;100549.56;5038442;28;2381;-79
2023/08/14 11:16:24;;;;;;;;;;;;;;;16.56;69.83;100544.94;5041197;28;2295;-77
2023/08/14 11:19:16;;;;;;;;;;;;;;;16.55;69.84;100546.00;5037943;28;2389;-78
2023/08/14 11:22:08;;;;;;;;;;;;;;;16.56;69.80;100549.56;5037723;28;2329;-79
2023/08/14 11:24:59;;;;;;;;;;;;;;;16.57;69.80;100560.16;5043849;28;2277;-78
2023/08/14 11:27:51;;;;;;;;;;;;;;;16.56;69.77;100550.38;5040721;28;2306;-80
2023/08/14 11:30:44;;;;;;;;;;;;;;;16.58;69.85;100550.91;5041453;28;2211;-79
2023/08/14 11:33:36;;;;;;;;;;;;;;;16.59;69.81;100557.19;5036928;28;2283;-77
2023/08/14 11:36:28;;;;;;;;;;;;;;;16.59;69.89;100551.75;5041341;28;2459;-78
2023/08/14 11:39:20;;;;;;;;;;;;;;;16.60;69.85;100552.56;5040096;28;2201;-77
2023/08/14 11:42:11;;;;;;;;;;;;;;;16.60;69.83;100553.38;5036610;28;2226;-78
2023/08/14 11:45:04;;;;;;;;;;;;;;;16.60;69.87;100552.56;5036633;28;2267;-77
2023/08/14 11:47:55;;;;;;;;;;;;;;;16.61;69.79;100554.19;5036858;28;2293;-78
2023/08/14 11:50:48;;;;;;;;;;;;;;;16.61;69.86;100551.47;5037888;28;2513;-78
2023/08/14 11:53:40;;;;;;;;;;;;;;;16.61;69.94;100555.00;5036522;28;2167;-76
2023/08/14 11:56:31;;;;;;;;;;;;;;;16.62;69.86;100548.50;5031547;28;2980;-80
2023/08/14 11:59:25;;;;;;;;;;;;;;;16.62;69.87;100562.13;5039500;28;2390;-78
2023/08/14 12:02:16;;;;;;;;;;;;;;;16.63;69.87;100552.06;5053199;28;2457;-78
2023/08/14 12:05:08;;;;;;;;;;;;;;;16.64;69.88;100565.38;5048805;28;1841;-78
2023/08/14 12:08:00;;;;;;;;;;;;;;;16.63;69.93;100552.88;5049807;28;1617;-78
2023/08/14 12:10:52;;;;;;;;;;;;;;;16.64;69.93;100559.13;5047498;28;930;-76
2023/08/14 12:13:44;;;;;;;;;;;;;;;16.64;69.89;100559.94;5046076;28;2534;-77
2023/08/14 12:16:36;;;;;;;;;;;;;;;16.65;69.99;100556.16;5054007;28;1734;-78
2023/08/14 12:19:28;;;;;;;;;;;;;;;16.64;70.15;100562.66;5048400;28;1898;-79
2023/08/14 12:22:20;;;;;;;;;;;;;;;16.65;69.96;100556.16;5047208;28;1461;-78
2023/08/14 12:25:11;;;;;;;;;;;;;;;16.65;69.88;100553.44;5049086;28;1549;-77
2023/08/14 12:28:04;;;;;;;;;;;;;;;16.65;69.86;100550.72;5050855;28;1538;-78
2023/08/14 12:30:55;;;;;;;;;;;;;;;16.66;69.97;100552.34;5047027;28;1586;-79
2023/08/14 12:33:48;;;;;;;;;;;;;;;16.67;69.95;100545.81;5047337;28;1755;-78
2023/08/14 12:36:40;;;;;;;;;;;;;;;16.67;69.97;100547.72;5047542;28;2212;-78
2023/08/14 12:39:32;;;;;;;;;;;;;;;16.67;69.86;100555.88;5040696;28;2525;-79
2023/08/14 12:42:24;;;;;;;;;;;;;;;16.68;69.99;100554.81;5044312;28;2420;-79
2023/08/14 12:45:16;;;;;;;;;;;;;;;16.69;70.10;100556.44;5042062;28;2195;-78
2023/08/14 12:48:07;;;;;;;;;;;;;;;16.69;69.99;100556.44;5038637;28;2559;-80
2023/08/14 12:51:00;;;;;;;;;;;;;;;16.70;70.03;100561.59;5039139;28;2273;-77
2023/08/14 12:53:52;;;;;;;;;;;;;;;16.70;69.95;100558.06;5036786;28;2342;-80
2023/08/14 12:56:44;;;;;;;;;;;;;;;16.70;70.04;100567.03;5038731;28;2208;-80
2023/08/14 12:59:35;;;;;;;;;;;;;;;16.71;70.15;100567.88;5041558;28;2109;-80
2023/08/14 13:02:27;;;;;;;;;;;;;;;16.70;70.17;100575.19;5037913;28;2358;-78
2023/08/14 13:05:19;;;;;;;;;;;;;;;16.71;70.11;100571.44;5040649;28;2349;-78
2023/08/14 13:08:11;;;;;;;;;;;;;;;16.72;70.26;100570.34;5037883;28;3508;-79
2023/08/14 13:11:03;;;;;;;;;;;;;;;16.73;70.13;100560.28;5038528;28;2169;-78
2023/08/14 13:13:54;;;;;;;;;;;;;;;16.73;70.05;100580.13;5037543;28;2255;-78
2023/08/14 13:16:46;;;;;;;;;;;;;;;16.73;70.05;100573.88;5051906;28;1402;-80
2023/08/14 13:19:39;;;;;;;;;;;;;;;16.72;70.28;100573.06;5040670;28;2164;-80
2023/08/14 13:22:30;;;;;;;;;;;;;;;16.74;70.22;100580.97;5038373;28;2274;-78
2023/08/14 13:25:21;;;;;;;;;;;;;;;16.73;70.17;100580.13;5039274;28;2409;-80
2023/08/14 13:28:15;;;;;;;;;;;;;;;16.74;70.20;100587.22;5041222;28;2257;-78
2023/08/14 13:31:07;;;;;;;;;;;;;;;16.73;70.26;100582.84;5035126;28;2202;-81
2023/08/14 13:33:58;;;;;;;;;;;;;;;16.75;70.25;100585.31;5041022;28;2298;-79
2023/08/14 13:36:50;;;;;;;;;;;;;;;16.75;70.26;100586.13;5038178;28;2108;-79
2023/08/14 13:39:42;;;;;;;;;;;;;;;16.74;70.26;100589.94;5038111;28;2254;-79
2023/08/14 13:42:34;;;;;;;;;;;;;;;16.76;70.30;100595.13;5038777;28;2337;-78
2023/08/14 13:45:26;;;;;;;;;;;;;;;16.76;70.34;100585.06;5037206;28;2335;-80
2023/08/14 13:48:18;;;;;;;;;;;;;;;16.76;70.30;100593.22;5038881;28;2563;-77
2023/08/14 13:51:10;;;;;;;;;;;;;;;16.76;70.24;100590.50;5036753;28;2175;-78
2023/08/14 13:54:01;;;;;;;;;;;;;;;16.76;70.22;100595.94;5036138;28;2265;-77
2023/08/14 13:56:53;;;;;;;;;;;;;;;16.77;70.29;100585.91;5038981;28;2221;-79
2023/08/14 13:59:45;;;;;;;;;;;;;;;16.77;70.25;100586.72;5037620;28;2226;-79
2023/08/14 14:02:37;;;;;;;;;;;;;;;16.78;70.23;100590.25;5037097;28;2194;-78
2023/08/14 14:05:28;;;;;;;;;;;;;;;16.78;70.41;100584.81;5038071;28;2273;-80
2023/08/14 14:08:21;;;;;;;;;;;;;;;16.78;70.31;100582.91;5037630;28;2382;-80
2023/08/14 14:11:13;;;;;;;;;;;;;;;16.78;70.26;100585.63;5037955;28;3685;-77
2023/08/14 14:14:05;;;;;;;;;;;;;;;16.78;70.32;100601.97;5041500;28;2709;-75
2023/08/14 14:16:57;;;;;;;;;;;;;;;16.80;70.20;100593.56;5049651;28;2792;-76
2023/08/14 14:19:49;;;;;;;;;;;;;;;16.79;70.28;100592.75;5038564;28;1903;-80
2023/08/14 14:22:40;;;;;;;;;;;;;;;16.80;70.29;100588.94;5046566;28;1529;-79
2023/08/14 14:25:32;;;;;;;;;;;;;;;16.79;70.30;100592.75;5046579;28;1549;-77
2023/08/14 14:28:24;;;;;;;;;;;;;;;16.81;70.56;100595.19;5045326;28;2953;-78
2023/08/14 14:31:16;;;;;;;;;;;;;;;16.81;70.31;100587.03;5049624;28;1545;-77
2023/08/14 14:34:08;;;;;;;;;;;;;;;16.81;70.29;100597.91;5046114;28;2265;-78
2023/08/14 14:36:59;;;;;;;;;;;;;;;16.82;70.32;100596.00;5046798;28;1581;-79
2023/08/14 14:39:51;;;;;;;;;;;;;;;16.82;70.40;100599.53;5048955;28;1906;-78
2023/08/14 14:42:43;;;;;;;;;;;;;;;16.82;70.52;100607.69;5043718;28;1609;-78
2023/08/14 14:45:35;;;;;;;;;;;;;;;16.82;70.48;100610.41;5047760;28;1697;-78
2023/08/14 14:48:27;;;;;;;;;;;;;;;16.82;70.47;100606.88;5047596;28;1557;-78
2023/08/14 14:51:18;;;;;;;;;;;;;;;16.82;70.30;100609.59;5046489;28;1711;-78
2023/08/14 14:54:10;;;;;;;;;;;;;;;16.83;70.63;100611.25;5050173;28;1541;-77
2023/08/14 14:57:02;;;;;;;;;;;;;;;16.83;70.67;100611.25;5039981;28;1902;-78